createdAt,value
2022-12-18T00:02:03.219Z,75.14
2022-12-18T00:07:08.545Z,75.27
2022-12-18T00:17:21.302Z,75.16
2022-12-18T00:22:26.709Z,75.35
2022-12-18T00:27:32.096Z,75.05
2022-12-18T00:32:37.915Z,74.84
2022-12-18T00:37:43.428Z,75.15
2022-12-18T00:43:00.236Z,74.45
2022-12-18T00:48:05.589Z,75.66
2022-12-18T00:53:11.030Z,75.58
2022-12-18T00:58:18.260Z,75.94
2022-12-18T01:03:23.690Z,75.45
2022-12-18T01:08:30.195Z,75.53
2022-12-18T01:13:36.311Z,75.28
2022-12-18T01:18:42.005Z,74.89
2022-12-18T01:23:47.709Z,76.10
2022-12-18T01:28:53.703Z,74.99
2022-12-18T01:34:00.038Z,75.63
2022-12-18T01:39:09.134Z,75.01
2022-12-18T01:44:51.914Z,75.34
2022-12-18T01:49:59.050Z,74.30
2022-12-18T01:55:07.083Z,73.49
2022-12-18T02:00:21.041Z,73.66
2022-12-18T02:05:50.531Z,74.49
2022-12-18T02:11:21.626Z,73.69
2022-12-18T02:16:53.242Z,74.94
2022-12-18T02:22:36.790Z,74.38
2022-12-18T02:27:47.488Z,74.30
2022-12-18T02:32:55.014Z,74.77
2022-12-18T02:38:00.853Z,73.82
2022-12-18T02:43:14.304Z,73.59
2022-12-18T02:48:27.840Z,73.42
2022-12-18T02:53:51.751Z,73.60
2022-12-18T02:59:12.233Z,73.97
2022-12-18T03:04:51.120Z,73.86
2022-12-18T03:09:58.388Z,74.76
2022-12-18T03:15:32.550Z,75.08
2022-12-18T03:20:50.989Z,75.16
2022-12-18T03:26:13.389Z,75.25
2022-12-18T03:31:25.606Z,74.92
2022-12-18T03:36:32.746Z,74.91
2022-12-18T03:42:18.393Z,75.77
2022-12-18T03:47:54.621Z,75.03
2022-12-18T03:53:31.984Z,75.16
2022-12-18T03:58:40.614Z,74.80
2022-12-18T04:04:10.286Z,74.61
2022-12-18T04:09:17.703Z,75.28
2022-12-18T04:14:25.653Z,75.65
2022-12-18T04:19:36.430Z,75.21
2022-12-18T04:24:42.941Z,75.41
2022-12-18T04:29:58.366Z,75.44
2022-12-18T04:35:05.683Z,75.65
2022-12-18T04:40:12.936Z,75.85
2022-12-18T04:45:23.969Z,74.56
2022-12-18T04:50:29.612Z,75.88
2022-12-18T04:55:35.079Z,75.16
2022-12-18T05:00:41.029Z,75.29
2022-12-18T05:05:46.439Z,74.68
2022-12-18T05:10:51.851Z,75.03
2022-12-18T05:15:57.671Z,75.14
2022-12-18T05:21:03.699Z,74.95
2022-12-18T05:26:19.296Z,74.96
2022-12-18T05:31:24.735Z,75.53
2022-12-18T05:36:30.301Z,75.08
2022-12-18T05:41:35.790Z,74.62
2022-12-18T05:46:42.480Z,74.73
2022-12-18T05:51:47.898Z,75.03
2022-12-18T05:56:53.317Z,75.56
2022-12-18T06:01:58.840Z,75.12
2022-12-18T06:07:07.722Z,75.05
2022-12-18T06:12:13.224Z,75.60
2022-12-18T06:17:18.679Z,74.44
2022-12-18T06:22:24.489Z,75.02
2022-12-18T06:27:29.951Z,75.30
2022-12-18T06:32:35.526Z,74.99
2022-12-18T06:37:41.001Z,74.88
2022-12-18T06:42:46.162Z,74.88
2022-12-18T06:47:51.885Z,74.62
2022-12-18T06:52:57.503Z,74.86
2022-12-18T06:58:03.003Z,73.11
2022-12-18T07:03:08.788Z,73.00
2022-12-18T07:08:14.487Z,73.91
2022-12-18T07:13:19.839Z,72.81
2022-12-18T07:18:25.232Z,72.28
2022-12-18T07:23:30.793Z,72.50
2022-12-18T07:28:37.695Z,72.73
2022-12-18T07:33:44.375Z,73.47
2022-12-18T07:38:53.131Z,72.80
2022-12-18T07:43:58.543Z,72.33
2022-12-18T07:49:03.930Z,73.19
2022-12-18T07:54:09.316Z,73.11
2022-12-18T07:59:17.562Z,73.31
2022-12-18T08:04:23.027Z,73.34
2022-12-18T08:09:28.467Z,72.58
2022-12-18T08:14:33.955Z,72.33
2022-12-18T08:19:39.271Z,73.46
2022-12-18T08:24:44.737Z,72.86
2022-12-18T08:29:50.073Z,72.32
2022-12-18T08:34:55.902Z,72.86
2022-12-18T08:40:01.426Z,72.58
2022-12-18T08:45:08.316Z,71.79
2022-12-18T08:50:13.921Z,71.97
2022-12-18T08:55:19.421Z,71.15
2022-12-18T09:00:26.042Z,71.75
2022-12-18T09:05:32.452Z,71.69
2022-12-18T09:10:45.310Z,70.96
2022-12-18T09:15:53.413Z,70.64
2022-12-18T09:20:58.964Z,71.01
2022-12-18T09:26:04.525Z,71.20
2022-12-18T09:31:10.370Z,71.66
2022-12-18T09:36:19.397Z,71.90
2022-12-18T09:41:40.518Z,71.30
2022-12-18T09:46:54.074Z,71.58
2022-12-18T09:52:32.042Z,70.80
2022-12-18T09:57:48.743Z,71.21
2022-12-18T10:03:02.984Z,70.53
2022-12-18T10:08:40.041Z,71.13
2022-12-18T10:14:33.518Z,70.93
2022-12-18T10:19:51.503Z,71.30
2022-12-18T10:25:05.803Z,71.62
2022-12-18T10:30:18.857Z,71.58
2022-12-18T10:35:28.355Z,72.29
2022-12-18T10:40:35.022Z,71.35
2022-12-18T10:45:41.007Z,71.20
2022-12-18T10:56:22.944Z,71.25
2022-12-18T11:01:30.018Z,70.74
2022-12-18T11:06:35.259Z,71.22
2022-12-18T11:11:41.342Z,71.45
2022-12-18T11:17:23.648Z,70.48
2022-12-18T11:22:28.051Z,71.88
2022-12-18T11:27:34.156Z,71.14
2022-12-18T11:33:08.641Z,71.06
2022-12-18T11:38:28.563Z,71.88
2022-12-18T11:43:50.480Z,71.77
2022-12-18T11:49:41.338Z,70.97
2022-12-18T11:54:46.806Z,71.25
2022-12-18T12:00:06.125Z,72.26
2022-12-18T12:05:29.541Z,72.33
2022-12-18T12:11:09.093Z,72.21
2022-12-18T12:16:40.550Z,73.05
2022-12-18T12:22:00.700Z,72.33
2022-12-18T12:27:21.984Z,72.33
2022-12-18T12:32:49.630Z,73.55
2022-12-18T12:38:12.990Z,73.36
2022-12-18T12:43:49.612Z,74.27
2022-12-18T12:49:10.894Z,74.63
2022-12-18T12:54:25.707Z,74.03
2022-12-18T13:00:01.513Z,73.58
2022-12-18T13:05:29.143Z,72.82
2022-12-18T13:10:38.035Z,73.85
2022-12-18T13:15:46.876Z,72.97
2022-12-18T13:21:03.522Z,73.58
2022-12-18T13:26:12.081Z,73.46
2022-12-18T13:31:17.581Z,72.96
2022-12-18T13:36:33.875Z,73.54
2022-12-18T13:41:39.418Z,73.21
2022-12-18T13:46:48.027Z,73.46
2022-12-18T13:51:56.845Z,74.23
2022-12-18T13:57:03.436Z,72.95
2022-12-18T14:02:41.221Z,71.94
2022-12-18T14:07:48.357Z,71.94
2022-12-18T14:13:03.212Z,72.93
2022-12-18T14:18:35.206Z,74.08
2022-12-18T14:23:44.463Z,74.07
2022-12-18T14:28:50.193Z,73.29
2022-12-18T14:33:55.112Z,73.11
2022-12-18T14:39:01.119Z,72.80
2022-12-18T14:44:08.962Z,72.69
2022-12-18T14:49:38.386Z,72.59
2022-12-18T14:54:49.679Z,72.70
2022-12-18T14:59:55.284Z,72.72
2022-12-18T15:05:12.999Z,72.92
2022-12-18T15:10:24.868Z,72.20
2022-12-18T15:15:41.073Z,71.91
2022-12-18T15:21:01.904Z,71.80
2022-12-18T15:26:09.873Z,70.93
2022-12-18T15:31:15.096Z,71.99
2022-12-18T15:36:32.174Z,72.62
2022-12-18T15:41:38.297Z,72.51
2022-12-18T15:46:45.064Z,71.89
2022-12-18T15:52:03.740Z,72.05
2022-12-18T15:57:26.406Z,71.86
2022-12-18T16:02:32.611Z,71.58
2022-12-18T16:07:38.144Z,72.16
2022-12-18T16:12:44.394Z,71.93
2022-12-18T16:17:50.144Z,72.52
2022-12-18T16:22:56.143Z,71.77
2022-12-18T16:28:01.911Z,71.02
2022-12-18T16:33:07.604Z,70.45
2022-12-18T16:38:13.240Z,70.51
2022-12-18T16:43:17.390Z,70.71
2022-12-18T16:48:23.145Z,70.35
2022-12-18T16:53:28.565Z,69.71
2022-12-18T16:58:34.782Z,69.82
2022-12-18T17:03:41.345Z,70.33
2022-12-18T17:08:50.123Z,70.29
2022-12-18T17:13:56.028Z,69.54
2022-12-18T17:19:03.687Z,70.10
2022-12-18T17:24:09.601Z,69.16
2022-12-18T17:29:17.912Z,70.54
2022-12-18T17:34:24.931Z,70.01
2022-12-18T17:39:31.291Z,69.73
2022-12-18T17:44:38.154Z,69.74
2022-12-18T17:49:43.577Z,69.64
2022-12-18T17:54:48.989Z,69.47
2022-12-18T17:59:54.467Z,69.54
2022-12-18T18:05:00.885Z,69.90
2022-12-18T18:10:07.963Z,70.11
2022-12-18T18:15:13.642Z,69.96
2022-12-18T18:20:22.495Z,70.04
2022-12-18T18:25:30.447Z,70.05
2022-12-18T18:30:37.915Z,69.59
2022-12-18T18:35:54.737Z,69.64
2022-12-18T18:41:06.438Z,69.58
2022-12-18T18:46:14.258Z,69.52
2022-12-18T18:51:21.696Z,69.87
2022-12-18T18:56:56.120Z,69.40
2022-12-18T19:01:55.230Z,69.81
2022-12-18T19:07:00.638Z,69.75
2022-12-18T19:12:26.213Z,69.68
2022-12-18T19:17:31.822Z,69.60
2022-12-18T19:22:37.406Z,69.84
2022-12-18T19:27:42.734Z,69.55
2022-12-18T19:32:48.082Z,69.35
2022-12-18T19:37:53.602Z,69.30
2022-12-18T19:42:59.195Z,69.38
2022-12-18T19:48:07.982Z,68.89
2022-12-18T19:53:13.371Z,69.13
2022-12-18T19:58:18.871Z,68.66
2022-12-18T20:03:32.512Z,68.45
2022-12-18T20:08:39.342Z,68.28
2022-12-18T20:13:44.876Z,68.52
2022-12-18T20:18:50.614Z,69.03
2022-12-18T20:24:23.773Z,69.19
2022-12-18T20:29:29.378Z,69.38
2022-12-18T20:34:34.838Z,69.99
2022-12-18T20:39:40.697Z,69.84
2022-12-18T20:44:46.403Z,70.72
2022-12-18T20:49:51.759Z,70.77
2022-12-18T20:54:57.461Z,70.58
2022-12-18T21:00:05.174Z,71.14
2022-12-18T21:05:10.697Z,70.71
2022-12-18T21:10:16.078Z,70.19
2022-12-18T21:15:28.208Z,70.16
2022-12-18T21:20:36.872Z,70.94
2022-12-18T21:25:42.391Z,70.91
2022-12-18T21:30:47.837Z,70.75
2022-12-18T21:35:53.220Z,71.89
2022-12-18T21:40:58.891Z,71.71
2022-12-18T21:46:04.327Z,71.01
2022-12-18T21:51:10.367Z,72.03
2022-12-18T21:56:15.863Z,71.27
2022-12-18T22:01:23.455Z,71.71
2022-12-18T22:06:29.234Z,70.83
2022-12-18T22:11:34.706Z,70.96
2022-12-18T22:16:40.576Z,70.79
2022-12-18T22:21:49.241Z,70.53
2022-12-18T22:27:21.745Z,70.23
2022-12-18T22:32:30.635Z,70.71
2022-12-18T22:37:36.775Z,70.00
2022-12-18T22:42:42.482Z,69.63
2022-12-18T22:47:47.971Z,68.74
2022-12-18T22:52:53.363Z,67.64
2022-12-18T22:57:59.071Z,67.46
2022-12-18T23:03:04.963Z,66.98
2022-12-18T23:08:13.701Z,65.98
2022-12-18T23:13:19.777Z,66.86
2022-12-18T23:18:24.977Z,66.60
2022-12-18T23:23:30.257Z,66.86
2022-12-18T23:28:37.820Z,66.27
2022-12-18T23:33:44.425Z,65.33
2022-12-18T23:38:52.061Z,65.11
2022-12-18T23:43:58.104Z,64.96
2022-12-18T23:49:06.613Z,64.56
2022-12-18T23:54:12.061Z,65.02
2022-12-18T23:59:20.279Z,65.37
